createdAt,value
2022-10-22T00:01:08.727Z,100269.72
2022-10-22T00:04:11.451Z,100267.91
2022-10-22T00:07:14.213Z,100276.16
2022-10-22T00:10:17.722Z,100277.97
2022-10-22T00:13:21.326Z,100271.69
2022-10-22T00:16:25.353Z,100270.81
2022-10-22T00:19:28.260Z,100275.44
2022-10-22T00:22:30.969Z,100270.72
2022-10-22T00:25:35.403Z,100273.63
2022-10-22T00:28:38.170Z,100267.44
2022-10-22T00:31:42.206Z,100262.47
2022-10-22T00:34:44.939Z,100254.38
2022-10-22T00:37:47.674Z,100260.53
2022-10-22T00:40:50.897Z,100257.13
2022-10-22T00:43:58.408Z,100258.97
2022-10-22T00:47:02.546Z,100263.22
2022-10-22T00:50:06.514Z,100257.03
2022-10-22T00:53:11.611Z,100254.75
2022-10-22T00:56:15.005Z,100253.16
2022-10-22T00:59:18.034Z,100250.50
2022-10-22T01:02:22.056Z,100258.50
2022-10-22T01:05:27.384Z,100254.25
2022-10-22T01:08:35.101Z,100254.38
2022-10-22T01:11:43.643Z,100241.75
2022-10-22T01:14:53.211Z,100245.38
2022-10-22T01:18:00.809Z,100235.84
2022-10-22T01:21:08.148Z,100232.56
2022-10-22T01:24:16.605Z,100236.69
2022-10-22T01:27:36.273Z,100244.41
2022-10-22T01:30:40.967Z,100244.81
2022-10-22T01:33:45.479Z,100242.16
2022-10-22T01:36:49.125Z,100246.38
2022-10-22T01:39:52.882Z,100251.97
2022-10-22T01:42:56.670Z,100251.84
2022-10-22T01:46:02.579Z,100244.94
2022-10-22T01:49:14.204Z,100249.81
2022-10-22T01:52:19.695Z,100259.25
2022-10-22T01:55:29.909Z,100264.72
2022-10-22T01:58:38.717Z,100256.69
2022-10-22T02:01:50.147Z,100251.38
2022-10-22T02:04:54.832Z,100254.16
2022-10-22T02:08:01.066Z,100256.69
2022-10-22T02:11:04.092Z,100247.72
2022-10-22T02:14:08.852Z,100259.38
2022-10-22T02:17:15.332Z,100267.50
2022-10-22T02:20:19.447Z,100256.84
2022-10-22T02:23:22.597Z,100263.16
2022-10-22T02:26:29.105Z,100264.22
2022-10-22T02:29:36.828Z,100252.84
2022-10-22T02:32:43.689Z,100262.81
2022-10-22T02:35:46.747Z,100253.97
2022-10-22T02:38:52.185Z,100254.81
2022-10-22T02:41:55.654Z,100243.03
2022-10-22T02:44:58.354Z,100243.88
2022-10-22T02:48:02.460Z,100245.69
2022-10-22T02:51:05.239Z,100244.84
2022-10-22T02:54:07.886Z,100252.16
2022-10-22T02:57:10.744Z,100256.63
2022-10-22T03:00:14.058Z,100251.31
2022-10-22T03:03:18.123Z,100252.28
2022-10-22T03:06:20.931Z,100251.44
2022-10-22T03:09:24.850Z,100252.50
2022-10-22T03:12:33.438Z,100241.84
2022-10-22T03:15:36.151Z,100249.84
2022-10-22T03:18:40.226Z,100235.28
2022-10-22T03:21:45.186Z,100250.56
2022-10-22T03:24:49.718Z,100241.84
2022-10-22T03:27:53.690Z,100246.59
2022-10-22T03:30:56.392Z,100240.03
2022-10-22T03:34:00.456Z,100239.44
2022-10-22T03:37:03.172Z,100243.19
2022-10-22T03:40:07.342Z,100256.16
2022-10-22T03:43:10.099Z,100247.53
2022-10-22T03:46:12.821Z,100247.88
2022-10-22T03:49:16.833Z,100251.66
2022-10-22T03:52:19.652Z,100243.81
2022-10-22T03:55:22.327Z,100245.50
2022-10-22T03:58:24.966Z,100248.28
2022-10-22T04:01:28.722Z,100244.03
2022-10-22T04:04:33.058Z,100233.13
2022-10-22T04:07:35.806Z,100227.09
2022-10-22T04:10:38.493Z,100224.28
2022-10-22T04:13:56.234Z,100225.38
2022-10-22T04:16:59.020Z,100239.59
2022-10-22T04:20:03.528Z,100235.47
2022-10-22T04:23:06.226Z,100241.78
2022-10-22T04:26:08.925Z,100250.47
2022-10-22T04:29:15.896Z,100249.38
2022-10-22T04:32:19.154Z,100258.75
2022-10-22T04:35:23.239Z,100254.00
2022-10-22T04:38:25.898Z,100254.00
2022-10-22T04:41:29.969Z,100252.31
2022-10-22T04:44:32.795Z,100257.28
2022-10-22T04:47:35.480Z,100252.56
2022-10-22T04:50:39.506Z,100257.91
2022-10-22T04:53:42.209Z,100258.28
2022-10-22T04:56:44.839Z,100261.53
2022-10-22T04:59:47.555Z,100260.66
2022-10-22T05:02:50.825Z,100256.31
2022-10-22T05:05:54.868Z,100253.41
2022-10-22T05:08:58.484Z,100256.94
2022-10-22T05:12:01.257Z,100251.59
2022-10-22T05:15:03.951Z,100251.84
2022-10-22T05:18:06.841Z,100255.59
2022-10-22T05:21:11.522Z,100247.34
2022-10-22T05:24:14.349Z,100254.97
2022-10-22T05:27:17.042Z,100257.78
2022-10-22T05:30:19.712Z,100257.50
2022-10-22T05:33:24.117Z,100255.09
2022-10-22T05:36:28.391Z,100258.97
2022-10-22T05:39:31.033Z,100264.78
2022-10-22T05:42:33.959Z,100263.94
2022-10-22T05:45:37.540Z,100268.44
2022-10-22T05:48:40.333Z,100259.81
2022-10-22T05:51:44.436Z,100258.75
2022-10-22T05:54:47.127Z,100263.09
2022-10-22T05:57:50.265Z,100265.50
2022-10-22T06:00:52.928Z,100269.00
2022-10-22T06:03:56.008Z,100270.25
2022-10-22T06:07:00.080Z,100266.34
2022-10-22T06:10:03.209Z,100271.09
2022-10-22T06:13:08.146Z,100278.34
2022-10-22T06:16:10.768Z,100284.56
2022-10-22T06:19:13.887Z,100285.16
2022-10-22T06:22:18.010Z,100286.00
2022-10-22T06:25:20.711Z,100286.00
2022-10-22T06:31:27.428Z,100270.25
2022-10-22T06:34:30.067Z,100271.25
2022-10-22T06:37:34.205Z,100269.41
2022-10-22T06:40:36.912Z,100273.63
2022-10-22T06:43:40.018Z,100270.25
2022-10-22T06:46:43.624Z,100277.00
2022-10-22T06:49:46.542Z,100279.94
2022-10-22T14:48:17.170Z,99942.88
2022-10-22T14:51:20.979Z,99937.09
2022-10-22T14:54:23.746Z,99947.00
2022-10-22T14:57:26.570Z,99936.13
2022-10-22T15:00:29.597Z,99943.38
2022-10-22T15:03:33.800Z,99937.22
2022-10-22T15:06:36.701Z,99939.03
2022-10-22T15:09:39.641Z,99950.25
2022-10-22T15:12:42.422Z,99947.59
2022-10-22T15:15:45.212Z,99949.28
2022-10-22T15:18:49.353Z,99950.75
2022-10-22T15:21:52.108Z,99958.00
2022-10-22T15:24:54.909Z,99948.56
2022-10-22T15:28:00.754Z,99948.19
2022-10-22T15:31:08.410Z,99945.06
2022-10-22T15:34:12.914Z,99940.94
2022-10-22T15:37:15.671Z,99947.72
2022-10-22T15:40:18.565Z,99939.00
2022-10-22T15:43:21.328Z,99941.56
2022-10-22T15:46:25.733Z,99937.19
2022-10-22T15:49:31.062Z,99945.66
2022-10-22T15:52:33.903Z,99937.56
2022-10-22T15:55:36.720Z,99943.34
2022-10-22T15:58:39.581Z,99943.00
2022-10-22T16:01:43.235Z,99949.75
2022-10-22T16:04:47.976Z,99948.56
2022-10-22T16:07:52.260Z,99951.84
2022-10-22T16:10:55.044Z,99954.72
2022-10-22T16:13:58.753Z,99953.78
2022-10-22T16:17:03.590Z,99950.47
2022-10-22T16:20:08.525Z,99950.47
2022-10-22T16:23:11.485Z,99947.72
2022-10-22T16:26:14.882Z,99933.66
2022-10-22T16:29:17.731Z,99930.03
2022-10-22T16:32:21.517Z,99939.34
2022-10-22T16:35:25.640Z,99942.28
2022-10-22T16:38:28.433Z,99934.28
2022-10-22T16:41:36.342Z,99938.38
2022-10-22T16:44:39.108Z,99938.38
2022-10-22T16:47:43.125Z,99939.00
2022-10-22T16:50:49.762Z,99934.75
2022-10-22T16:53:55.247Z,99934.75
2022-10-22T16:56:58.073Z,99930.00
2022-10-22T17:00:01.053Z,99934.47
2022-10-22T17:03:04.167Z,99942.69
2022-10-22T17:06:09.045Z,99929.84
2022-10-22T17:09:13.607Z,99941.44
2022-10-22T17:12:16.700Z,99928.84
2022-10-22T17:15:20.206Z,99922.53
2022-10-22T17:18:22.958Z,99926.66
2022-10-22T17:21:27.261Z,99919.94
2022-10-22T17:24:31.313Z,99918.72
2022-10-22T17:27:34.113Z,99914.94
2022-10-22T17:30:39.048Z,99905.75
2022-10-22T17:33:41.856Z,99904.53
2022-10-22T17:36:46.014Z,99905.56
2022-10-22T17:39:48.870Z,99896.88
2022-10-22T17:42:51.639Z,99893.31
2022-10-22T17:45:55.279Z,99894.06
2022-10-22T17:48:59.150Z,99888.97
2022-10-22T17:52:03.328Z,99889.25
2022-10-22T17:55:06.354Z,99895.03
2022-10-22T17:58:09.839Z,99888.56
2022-10-22T18:01:20.209Z,99880.88
2022-10-22T18:04:23.965Z,99858.19
2022-10-22T18:07:28.364Z,99846.75
2022-10-22T18:10:32.721Z,99845.69
2022-10-22T18:13:41.625Z,99836.47
2022-10-22T18:16:44.681Z,99836.47
2022-10-22T18:19:49.254Z,99839.69
2022-10-22T18:22:55.041Z,99836.31
2022-10-22T18:25:58.350Z,99833.38
2022-10-22T18:29:03.195Z,99836.75
2022-10-22T18:32:12.152Z,99839.16
2022-10-22T18:35:16.007Z,99842.13
2022-10-22T18:38:22.657Z,99855.16
2022-10-22T18:41:27.507Z,99860.25
2022-10-22T18:44:30.428Z,99863.44
2022-10-22T18:47:33.316Z,99864.28
2022-10-22T18:50:36.172Z,99856.28
2022-10-22T18:53:40.887Z,99859.66
2022-10-22T18:56:43.725Z,99867.66
2022-10-22T18:59:47.783Z,99854.47
2022-10-22T19:02:50.618Z,99849.13
2022-10-22T19:06:33.220Z,99852.50
2022-10-22T19:09:40.117Z,99847.16
2022-10-22T19:12:42.781Z,99852.25
2022-10-22T19:15:46.038Z,99845.81
2022-10-22T19:18:48.744Z,99846.78
2022-10-22T19:21:52.179Z,99834.44
2022-10-22T19:24:56.376Z,99832.63
2022-10-22T19:27:59.284Z,99830.50
2022-10-22T19:31:02.463Z,99833.91
2022-10-22T19:34:05.663Z,99822.97
2022-10-22T19:37:08.455Z,99829.97
2022-10-22T19:40:12.944Z,99823.41
2022-10-22T19:43:18.893Z,99828.72
2022-10-22T19:46:22.457Z,99823.13
2022-10-22T19:49:25.188Z,99830.16
2022-10-22T19:52:27.983Z,99832.84
2022-10-22T19:55:32.201Z,99830.16
2022-10-22T19:58:35.538Z,99827.50
2022-10-22T20:01:38.637Z,99824.53
2022-10-22T20:04:41.423Z,99818.38
2022-10-22T20:07:44.475Z,99830.34
2022-10-22T20:10:50.719Z,99826.81
2022-10-22T20:13:53.372Z,99823.03
2022-10-22T20:16:56.086Z,99820.50
2022-10-22T20:19:59.468Z,99806.06
2022-10-22T20:23:02.475Z,99807.59
2022-10-22T20:26:06.830Z,99811.25
2022-10-22T20:29:09.625Z,99811.97
2022-10-22T20:32:13.380Z,99814.47
2022-10-22T20:35:16.237Z,99822.91
2022-10-22T20:38:18.943Z,99813.22
2022-10-22T20:41:23.876Z,99808.75
2022-10-22T20:44:26.570Z,99806.34
2022-10-22T20:47:39.220Z,99808.00
2022-10-22T20:50:51.901Z,99801.59
2022-10-22T20:53:54.613Z,99810.00
2022-10-22T20:56:58.808Z,99807.47
2022-10-22T21:00:01.486Z,99805.63
2022-10-22T21:03:04.176Z,99801.16
2022-10-22T21:06:07.475Z,99805.50
2022-10-22T21:09:10.789Z,99793.00
2022-10-22T21:12:14.942Z,99793.00
2022-10-22T21:15:17.817Z,99793.88
2022-10-22T21:18:20.575Z,99785.28
2022-10-22T21:21:23.356Z,99786.84
2022-10-22T21:24:26.453Z,99780.66
2022-10-22T21:27:30.513Z,99777.00
2022-10-22T21:30:33.316Z,99772.25
2022-10-22T21:33:37.043Z,99766.06
2022-10-22T21:36:39.792Z,99752.75
2022-10-22T21:39:42.552Z,99766.22
2022-10-22T21:42:46.583Z,99745.44
2022-10-22T21:45:49.265Z,99743.59
2022-10-22T21:48:55.003Z,99743.06
2022-10-22T21:51:59.928Z,99743.75
2022-10-22T21:55:02.635Z,99743.75
2022-10-22T21:58:07.104Z,99740.09
2022-10-22T22:01:09.949Z,99724.38
2022-10-22T22:04:12.657Z,99727.75
2022-10-22T22:07:15.380Z,99729.44
2022-10-22T22:10:18.190Z,99730.28
2022-10-22T22:13:24.941Z,99727.06
2022-10-22T22:16:29.070Z,99722.72
2022-10-22T22:19:31.754Z,99714.56
2022-10-22T22:22:34.466Z,99719.75
2022-10-22T22:25:37.112Z,99718.91
2022-10-22T22:28:41.463Z,99712.03
2022-10-22T22:31:45.934Z,99706.16
2022-10-22T22:34:48.682Z,99707.41
2022-10-22T22:37:51.373Z,99696.88
2022-10-22T22:40:54.011Z,99701.94
2022-10-22T22:43:58.111Z,99689.88
2022-10-22T22:47:00.747Z,99693.50
2022-10-22T22:50:03.440Z,99690.97
2022-10-22T22:53:06.108Z,99694.06
2022-10-22T22:56:10.111Z,99687.88
2022-10-22T22:59:14.207Z,99681.72
2022-10-22T23:02:16.928Z,99673.88
2022-10-22T23:05:19.621Z,99662.31
2022-10-22T23:08:22.307Z,99663.88
2022-10-22T23:11:25.748Z,99660.09
2022-10-22T23:14:29.929Z,99649.72
2022-10-22T23:17:32.640Z,99659.53
2022-10-22T23:20:38.293Z,99656.72
2022-10-22T23:23:43.621Z,99642.25
2022-10-22T23:26:47.620Z,99639.03
2022-10-22T23:29:51.658Z,99639.03
2022-10-22T23:32:54.372Z,99638.22
2022-10-22T23:35:57.172Z,99644.38
2022-10-22T23:39:00.143Z,99622.22
2022-10-22T23:42:02.891Z,99637.38
2022-10-22T23:45:07.659Z,99632.03
2022-10-22T23:48:10.370Z,99628.66
2022-10-22T23:51:14.203Z,99632.03
2022-10-22T23:54:17.850Z,99618.81
2022-10-22T23:57:20.543Z,99616.44
